sensor_id;sensor_type;location;lat;lon;timestamp;P1;durP1;ratioP1;P2;durP2;ratioP2
51578;SDS011;47998;53.242;6.386;2023-04-15T00:02:15;15.13;;;7.03;;
51578;SDS011;47998;53.242;6.386;2023-04-15T00:04:45;16.90;;;7.90;;
51578;SDS011;47998;53.242;6.386;2023-04-15T00:07:12;13.55;;;7.10;;
51578;SDS011;47998;53.242;6.386;2023-04-15T00:09:39;17.63;;;8.40;;
51578;SDS011;47998;53.242;6.386;2023-04-15T00:12:06;16.85;;;7.53;;
51578;SDS011;47998;53.242;6.386;2023-04-15T00:14:32;14.95;;;7.68;;
51578;SDS011;47998;53.242;6.386;2023-04-15T00:17:00;15.80;;;8.43;;
51578;SDS011;47998;53.242;6.386;2023-04-15T00:19:27;17.08;;;8.23;;
51578;SDS011;47998;53.242;6.386;2023-04-15T00:21:53;18.17;;;8.75;;
51578;SDS011;47998;53.242;6.386;2023-04-15T00:24:19;18.20;;;8.95;;
51578;SDS011;47998;53.242;6.386;2023-04-15T00:26:45;21.58;;;10.25;;
51578;SDS011;47998;53.242;6.386;2023-04-15T00:29:11;18.15;;;9.30;;
51578;SDS011;47998;53.242;6.386;2023-04-15T00:31:37;21.38;;;9.27;;
51578;SDS011;47998;53.242;6.386;2023-04-15T00:34:03;20.73;;;9.88;;
51578;SDS011;47998;53.242;6.386;2023-04-15T00:36:28;17.88;;;9.13;;
51578;SDS011;47998;53.242;6.386;2023-04-15T00:38:55;19.88;;;10.00;;
51578;SDS011;47998;53.242;6.386;2023-04-15T00:41:21;18.58;;;10.63;;
51578;SDS011;47998;53.242;6.386;2023-04-15T00:43:47;14.95;;;9.85;;
51578;SDS011;47998;53.242;6.386;2023-04-15T00:46:13;19.50;;;10.00;;
51578;SDS011;47998;53.242;6.386;2023-04-15T00:48:41;22.92;;;10.80;;
51578;SDS011;47998;53.242;6.386;2023-04-15T00:51:08;22.42;;;11.10;;
51578;SDS011;47998;53.242;6.386;2023-04-15T00:53:33;21.27;;;10.13;;
51578;SDS011;47998;53.242;6.386;2023-04-15T00:55:59;18.13;;;10.45;;
51578;SDS011;47998;53.242;6.386;2023-04-15T00:58:25;20.85;;;10.90;;
51578;SDS011;47998;53.242;6.386;2023-04-15T01:00:53;20.30;;;12.55;;
51578;SDS011;47998;53.242;6.386;2023-04-15T01:03:21;21.67;;;12.27;;
51578;SDS011;47998;53.242;6.386;2023-04-15T01:05:47;20.92;;;12.32;;
51578;SDS011;47998;53.242;6.386;2023-04-15T01:08:13;23.58;;;12.20;;
51578;SDS011;47998;53.242;6.386;2023-04-15T01:10:40;19.85;;;12.60;;
51578;SDS011;47998;53.242;6.386;2023-04-15T01:13:06;26.23;;;12.43;;
51578;SDS011;47998;53.242;6.386;2023-04-15T01:15:31;23.33;;;12.18;;
51578;SDS011;47998;53.242;6.386;2023-04-15T01:17:59;22.05;;;12.90;;
51578;SDS011;47998;53.242;6.386;2023-04-15T01:20:28;31.17;;;12.25;;
51578;SDS011;47998;53.242;6.386;2023-04-15T01:22:53;21.50;;;13.63;;
51578;SDS011;47998;53.242;6.386;2023-04-15T01:25:27;25.55;;;13.45;;
51578;SDS011;47998;53.242;6.386;2023-04-15T01:27:57;24.55;;;12.55;;
51578;SDS011;47998;53.242;6.386;2023-04-15T01:30:23;23.15;;;13.75;;
51578;SDS011;47998;53.242;6.386;2023-04-15T01:32:51;25.13;;;13.75;;
51578;SDS011;47998;53.242;6.386;2023-04-15T01:35:17;22.73;;;12.93;;
51578;SDS011;47998;53.242;6.386;2023-04-15T01:37:43;23.65;;;13.02;;
51578;SDS011;47998;53.242;6.386;2023-04-15T01:40:09;23.20;;;14.07;;
51578;SDS011;47998;53.242;6.386;2023-04-15T01:42:35;23.20;;;14.02;;
51578;SDS011;47998;53.242;6.386;2023-04-15T01:45:01;26.33;;;14.60;;
51578;SDS011;47998;53.242;6.386;2023-04-15T01:47:28;24.10;;;14.10;;
51578;SDS011;47998;53.242;6.386;2023-04-15T01:49:53;31.98;;;14.70;;
51578;SDS011;47998;53.242;6.386;2023-04-15T01:52:19;23.88;;;15.90;;
51578;SDS011;47998;53.242;6.386;2023-04-15T01:54:45;23.33;;;14.57;;
51578;SDS011;47998;53.242;6.386;2023-04-15T01:57:11;25.50;;;15.32;;
51578;SDS011;47998;53.242;6.386;2023-04-15T01:59:37;24.50;;;14.98;;
51578;SDS011;47998;53.242;6.386;2023-04-15T02:02:03;26.20;;;14.65;;
51578;SDS011;47998;53.242;6.386;2023-04-15T02:04:29;27.17;;;15.55;;
51578;SDS011;47998;53.242;6.386;2023-04-15T02:06:55;29.00;;;15.68;;
51578;SDS011;47998;53.242;6.386;2023-04-15T02:09:21;26.05;;;16.05;;
51578;SDS011;47998;53.242;6.386;2023-04-15T02:11:47;26.95;;;16.35;;
51578;SDS011;47998;53.242;6.386;2023-04-15T02:14:12;24.83;;;16.00;;
51578;SDS011;47998;53.242;6.386;2023-04-15T02:16:38;29.40;;;16.87;;
51578;SDS011;47998;53.242;6.386;2023-04-15T02:19:04;27.52;;;17.17;;
51578;SDS011;47998;53.242;6.386;2023-04-15T02:21:30;27.77;;;16.83;;
51578;SDS011;47998;53.242;6.386;2023-04-15T02:23:55;28.67;;;17.48;;
51578;SDS011;47998;53.242;6.386;2023-04-15T02:26:21;29.08;;;16.95;;
51578;SDS011;47998;53.242;6.386;2023-04-15T02:28:49;28.58;;;16.60;;
51578;SDS011;47998;53.242;6.386;2023-04-15T02:31:18;30.35;;;17.08;;
51578;SDS011;47998;53.242;6.386;2023-04-15T02:33:43;30.20;;;16.70;;
51578;SDS011;47998;53.242;6.386;2023-04-15T02:36:09;33.03;;;18.80;;
51578;SDS011;47998;53.242;6.386;2023-04-15T02:38:36;31.93;;;17.13;;
51578;SDS011;47998;53.242;6.386;2023-04-15T02:41:04;35.53;;;17.10;;
51578;SDS011;47998;53.242;6.386;2023-04-15T02:43:30;31.23;;;18.80;;
51578;SDS011;47998;53.242;6.386;2023-04-15T02:45:55;31.70;;;17.53;;
51578;SDS011;47998;53.242;6.386;2023-04-15T02:48:21;33.70;;;18.42;;
51578;SDS011;47998;53.242;6.386;2023-04-15T02:50:47;30.53;;;18.03;;
51578;SDS011;47998;53.242;6.386;2023-04-15T02:53:12;30.77;;;18.05;;
51578;SDS011;47998;53.242;6.386;2023-04-15T02:55:38;33.97;;;18.87;;
51578;SDS011;47998;53.242;6.386;2023-04-15T02:58:04;36.07;;;19.00;;
51578;SDS011;47998;53.242;6.386;2023-04-15T03:00:31;34.50;;;19.87;;
51578;SDS011;47998;53.242;6.386;2023-04-15T03:02:57;35.97;;;20.83;;
51578;SDS011;47998;53.242;6.386;2023-04-15T03:05:30;32.58;;;19.13;;
51578;SDS011;47998;53.242;6.386;2023-04-15T03:07:56;33.87;;;18.57;;
51578;SDS011;47998;53.242;6.386;2023-04-15T03:10:22;31.85;;;19.60;;
51578;SDS011;47998;53.242;6.386;2023-04-15T03:12:47;35.27;;;19.87;;
51578;SDS011;47998;53.242;6.386;2023-04-15T03:15:14;37.80;;;21.38;;
51578;SDS011;47998;53.242;6.386;2023-04-15T03:17:40;37.60;;;20.88;;
51578;SDS011;47998;53.242;6.386;2023-04-15T03:20:06;39.50;;;20.50;;
51578;SDS011;47998;53.242;6.386;2023-04-15T03:22:33;34.22;;;18.95;;
51578;SDS011;47998;53.242;6.386;2023-04-15T03:24:59;33.20;;;19.60;;
51578;SDS011;47998;53.242;6.386;2023-04-15T03:27:25;33.43;;;21.00;;
51578;SDS011;47998;53.242;6.386;2023-04-15T03:29:51;40.97;;;20.67;;
51578;SDS011;47998;53.242;6.386;2023-04-15T03:32:17;34.53;;;21.08;;
51578;SDS011;47998;53.242;6.386;2023-04-15T03:34:42;33.23;;;18.93;;
51578;SDS011;47998;53.242;6.386;2023-04-15T03:37:08;36.30;;;20.93;;
51578;SDS011;47998;53.242;6.386;2023-04-15T03:39:34;35.10;;;19.80;;
51578;SDS011;47998;53.242;6.386;2023-04-15T03:42:00;37.60;;;20.63;;
51578;SDS011;47998;53.242;6.386;2023-04-15T03:44:26;34.13;;;20.37;;
51578;SDS011;47998;53.242;6.386;2023-04-15T03:46:52;36.07;;;21.73;;
51578;SDS011;47998;53.242;6.386;2023-04-15T03:49:18;39.20;;;20.97;;
51578;SDS011;47998;53.242;6.386;2023-04-15T03:51:44;36.00;;;19.60;;
51578;SDS011;47998;53.242;6.386;2023-04-15T03:54:10;34.72;;;20.67;;
51578;SDS011;47998;53.242;6.386;2023-04-15T03:56:39;32.83;;;20.27;;
51578;SDS011;47998;53.242;6.386;2023-04-15T03:59:05;40.20;;;21.30;;
51578;SDS011;47998;53.242;6.386;2023-04-15T04:01:31;31.53;;;19.37;;
51578;SDS011;47998;53.242;6.386;2023-04-15T04:03:56;38.93;;;20.87;;
51578;SDS011;47998;53.242;6.386;2023-04-15T04:06:22;37.33;;;21.50;;
51578;SDS011;47998;53.242;6.386;2023-04-15T04:08:48;36.97;;;22.07;;
51578;SDS011;47998;53.242;6.386;2023-04-15T04:11:14;37.60;;;21.55;;
51578;SDS011;47998;53.242;6.386;2023-04-15T04:13:40;39.00;;;24.13;;
51578;SDS011;47998;53.242;6.386;2023-04-15T04:16:05;39.03;;;22.40;;
51578;SDS011;47998;53.242;6.386;2023-04-15T04:18:31;39.90;;;22.97;;
51578;SDS011;47998;53.242;6.386;2023-04-15T04:20:57;40.92;;;22.92;;
51578;SDS011;47998;53.242;6.386;2023-04-15T04:23:23;35.93;;;22.00;;
51578;SDS011;47998;53.242;6.386;2023-04-15T04:25:49;41.57;;;22.33;;
51578;SDS011;47998;53.242;6.386;2023-04-15T04:28:15;41.15;;;24.00;;
51578;SDS011;47998;53.242;6.386;2023-04-15T04:30:41;38.57;;;23.03;;
51578;SDS011;47998;53.242;6.386;2023-04-15T04:33:06;40.97;;;22.07;;
51578;SDS011;47998;53.242;6.386;2023-04-15T04:35:32;37.90;;;21.08;;
51578;SDS011;47998;53.242;6.386;2023-04-15T04:38:01;37.43;;;21.90;;
51578;SDS011;47998;53.242;6.386;2023-04-15T04:40:28;46.80;;;24.80;;
51578;SDS011;47998;53.242;6.386;2023-04-15T04:42:53;41.67;;;23.33;;
51578;SDS011;47998;53.242;6.386;2023-04-15T04:45:19;44.53;;;22.67;;
51578;SDS011;47998;53.242;6.386;2023-04-15T04:47:45;42.90;;;22.87;;
51578;SDS011;47998;53.242;6.386;2023-04-15T04:50:11;43.43;;;23.07;;
51578;SDS011;47998;53.242;6.386;2023-04-15T04:52:37;51.57;;;22.53;;
51578;SDS011;47998;53.242;6.386;2023-04-15T04:55:03;45.00;;;23.10;;
51578;SDS011;47998;53.242;6.386;2023-04-15T04:57:29;41.37;;;22.03;;
51578;SDS011;47998;53.242;6.386;2023-04-15T04:59:55;47.03;;;24.40;;
51578;SDS011;47998;53.242;6.386;2023-04-15T05:02:21;51.80;;;23.50;;
51578;SDS011;47998;53.242;6.386;2023-04-15T05:04:47;44.73;;;23.00;;
51578;SDS011;47998;53.242;6.386;2023-04-15T05:07:14;49.23;;;23.03;;
51578;SDS011;47998;53.242;6.386;2023-04-15T05:09:40;45.73;;;20.87;;
51578;SDS011;47998;53.242;6.386;2023-04-15T05:12:06;45.67;;;22.07;;
51578;SDS011;47998;53.242;6.386;2023-04-15T05:14:33;43.50;;;21.63;;
51578;SDS011;47998;53.242;6.386;2023-04-15T05:16:59;42.73;;;20.43;;
51578;SDS011;47998;53.242;6.386;2023-04-15T05:19:24;41.57;;;21.83;;
51578;SDS011;47998;53.242;6.386;2023-04-15T05:21:50;45.93;;;22.37;;
51578;SDS011;47998;53.242;6.386;2023-04-15T05:24:16;46.60;;;22.47;;
51578;SDS011;47998;53.242;6.386;2023-04-15T05:26:42;45.10;;;21.93;;
51578;SDS011;47998;53.242;6.386;2023-04-15T05:29:08;49.33;;;23.93;;
51578;SDS011;47998;53.242;6.386;2023-04-15T05:31:33;46.03;;;22.30;;
51578;SDS011;47998;53.242;6.386;2023-04-15T05:33:59;44.33;;;22.33;;
51578;SDS011;47998;53.242;6.386;2023-04-15T05:36:25;47.63;;;23.37;;
51578;SDS011;47998;53.242;6.386;2023-04-15T05:38:51;40.20;;;20.20;;
51578;SDS011;47998;53.242;6.386;2023-04-15T05:41:17;42.37;;;21.00;;
51578;SDS011;47998;53.242;6.386;2023-04-15T05:43:43;44.43;;;22.03;;
51578;SDS011;47998;53.242;6.386;2023-04-15T05:46:09;39.17;;;21.07;;
51578;SDS011;47998;53.242;6.386;2023-04-15T05:48:34;39.47;;;21.23;;
51578;SDS011;47998;53.242;6.386;2023-04-15T05:51:00;43.35;;;21.42;;
51578;SDS011;47998;53.242;6.386;2023-04-15T05:53:26;39.75;;;21.15;;
51578;SDS011;47998;53.242;6.386;2023-04-15T05:55:51;46.80;;;23.10;;
51578;SDS011;47998;53.242;6.386;2023-04-15T05:58:17;43.50;;;23.13;;
51578;SDS011;47998;53.242;6.386;2023-04-15T06:00:43;41.13;;;22.43;;
51578;SDS011;47998;53.242;6.386;2023-04-15T06:03:10;41.78;;;21.55;;
51578;SDS011;47998;53.242;6.386;2023-04-15T06:05:36;40.63;;;22.38;;
51578;SDS011;47998;53.242;6.386;2023-04-15T06:08:02;38.97;;;21.35;;
51578;SDS011;47998;53.242;6.386;2023-04-15T06:10:28;42.55;;;21.30;;
51578;SDS011;47998;53.242;6.386;2023-04-15T06:12:55;37.70;;;20.88;;
51578;SDS011;47998;53.242;6.386;2023-04-15T06:15:20;36.17;;;21.00;;
51578;SDS011;47998;53.242;6.386;2023-04-15T06:17:46;35.20;;;20.73;;
51578;SDS011;47998;53.242;6.386;2023-04-15T06:20:12;36.83;;;20.88;;
51578;SDS011;47998;53.242;6.386;2023-04-15T06:22:38;38.35;;;20.30;;
51578;SDS011;47998;53.242;6.386;2023-04-15T06:25:04;36.30;;;20.23;;
51578;SDS011;47998;53.242;6.386;2023-04-15T06:27:32;38.38;;;20.35;;
51578;SDS011;47998;53.242;6.386;2023-04-15T06:29:57;36.45;;;20.38;;
51578;SDS011;47998;53.242;6.386;2023-04-15T06:32:23;33.97;;;19.92;;
51578;SDS011;47998;53.242;6.386;2023-04-15T06:34:49;31.15;;;18.60;;
51578;SDS011;47998;53.242;6.386;2023-04-15T06:37:15;34.97;;;20.63;;
51578;SDS011;47998;53.242;6.386;2023-04-15T06:39:41;37.92;;;20.08;;
51578;SDS011;47998;53.242;6.386;2023-04-15T06:42:09;31.90;;;18.92;;
51578;SDS011;47998;53.242;6.386;2023-04-15T06:44:36;31.70;;;18.17;;
51578;SDS011;47998;53.242;6.386;2023-04-15T06:47:02;32.33;;;18.23;;
51578;SDS011;47998;53.242;6.386;2023-04-15T06:49:27;26.02;;;16.33;;
51578;SDS011;47998;53.242;6.386;2023-04-15T06:51:53;22.95;;;15.00;;
51578;SDS011;47998;53.242;6.386;2023-04-15T06:54:19;22.83;;;13.73;;
51578;SDS011;47998;53.242;6.386;2023-04-15T06:56:45;20.13;;;12.68;;
51578;SDS011;47998;53.242;6.386;2023-04-15T06:59:12;15.93;;;11.07;;
51578;SDS011;47998;53.242;6.386;2023-04-15T07:01:39;17.15;;;11.32;;
51578;SDS011;47998;53.242;6.386;2023-04-15T07:04:06;14.45;;;10.02;;
51578;SDS011;47998;53.242;6.386;2023-04-15T07:06:31;19.38;;;9.52;;
51578;SDS011;47998;53.242;6.386;2023-04-15T07:08:57;13.65;;;8.93;;
51578;SDS011;47998;53.242;6.386;2023-04-15T07:11:26;12.90;;;7.65;;
51578;SDS011;47998;53.242;6.386;2023-04-15T07:13:52;13.23;;;6.65;;
51578;SDS011;47998;53.242;6.386;2023-04-15T07:16:18;10.50;;;7.15;;
51578;SDS011;47998;53.242;6.386;2023-04-15T07:18:44;10.57;;;6.20;;
51578;SDS011;47998;53.242;6.386;2023-04-15T07:21:10;10.73;;;6.35;;
51578;SDS011;47998;53.242;6.386;2023-04-15T07:23:35;11.23;;;7.10;;
51578;SDS011;47998;53.242;6.386;2023-04-15T07:26:01;13.07;;;6.78;;
51578;SDS011;47998;53.242;6.386;2023-04-15T07:28:28;11.88;;;6.35;;
51578;SDS011;47998;53.242;6.386;2023-04-15T07:30:54;12.43;;;6.95;;
51578;SDS011;47998;53.242;6.386;2023-04-15T07:33:22;11.05;;;6.40;;
51578;SDS011;47998;53.242;6.386;2023-04-15T07:35:48;10.95;;;6.35;;
51578;SDS011;47998;53.242;6.386;2023-04-15T07:38:14;13.50;;;7.30;;
51578;SDS011;47998;53.242;6.386;2023-04-15T07:40:39;13.35;;;7.82;;
51578;SDS011;47998;53.242;6.386;2023-04-15T07:43:07;12.25;;;6.70;;
51578;SDS011;47998;53.242;6.386;2023-04-15T07:45:33;11.85;;;6.57;;
51578;SDS011;47998;53.242;6.386;2023-04-15T07:47:59;11.57;;;7.18;;
51578;SDS011;47998;53.242;6.386;2023-04-15T07:50:28;10.15;;;6.95;;
51578;SDS011;47998;53.242;6.386;2023-04-15T07:52:54;9.65;;;6.45;;
51578;SDS011;47998;53.242;6.386;2023-04-15T07:55:20;9.60;;;6.43;;
51578;SDS011;47998;53.242;6.386;2023-04-15T07:57:47;11.93;;;6.80;;
51578;SDS011;47998;53.242;6.386;2023-04-15T08:00:14;9.85;;;6.18;;
51578;SDS011;47998;53.242;6.386;2023-04-15T08:02:40;13.27;;;6.30;;
51578;SDS011;47998;53.242;6.386;2023-04-15T08:05:12;9.55;;;6.55;;
51578;SDS011;47998;53.242;6.386;2023-04-15T08:07:38;12.95;;;6.55;;
51578;SDS011;47998;53.242;6.386;2023-04-15T08:10:05;11.75;;;5.75;;
51578;SDS011;47998;53.242;6.386;2023-04-15T08:12:31;8.48;;;5.97;;
51578;SDS011;47998;53.242;6.386;2023-04-15T08:14:57;8.40;;;4.95;;
51578;SDS011;47998;53.242;6.386;2023-04-15T08:17:23;13.65;;;5.57;;
51578;SDS011;47998;53.242;6.386;2023-04-15T08:19:48;8.23;;;4.50;;
51578;SDS011;47998;53.242;6.386;2023-04-15T08:22:14;7.90;;;4.70;;
51578;SDS011;47998;53.242;6.386;2023-04-15T08:24:41;10.15;;;5.07;;
51578;SDS011;47998;53.242;6.386;2023-04-15T08:27:06;10.32;;;4.78;;
51578;SDS011;47998;53.242;6.386;2023-04-15T08:29:33;6.35;;;4.28;;
51578;SDS011;47998;53.242;6.386;2023-04-15T08:31:59;7.25;;;3.53;;
51578;SDS011;47998;53.242;6.386;2023-04-15T08:34:28;8.18;;;3.85;;
51578;SDS011;47998;53.242;6.386;2023-04-15T08:36:54;9.23;;;3.88;;
51578;SDS011;47998;53.242;6.386;2023-04-15T08:39:19;7.47;;;4.22;;
51578;SDS011;47998;53.242;6.386;2023-04-15T08:41:46;5.82;;;2.90;;
51578;SDS011;47998;53.242;6.386;2023-04-15T08:44:15;5.72;;;2.95;;
51578;SDS011;47998;53.242;6.386;2023-04-15T08:46:42;6.50;;;2.42;;
51578;SDS011;47998;53.242;6.386;2023-04-15T08:49:09;8.15;;;2.50;;
51578;SDS011;47998;53.242;6.386;2023-04-15T08:51:39;6.40;;;2.03;;
51578;SDS011;47998;53.242;6.386;2023-04-15T08:54:06;7.28;;;2.88;;
51578;SDS011;47998;53.242;6.386;2023-04-15T08:56:33;8.20;;;3.38;;
51578;SDS011;47998;53.242;6.386;2023-04-15T08:58:59;5.70;;;2.88;;
51578;SDS011;47998;53.242;6.386;2023-04-15T09:01:25;6.22;;;3.13;;
51578;SDS011;47998;53.242;6.386;2023-04-15T09:03:52;5.50;;;3.13;;
51578;SDS011;47998;53.242;6.386;2023-04-15T09:06:21;5.13;;;2.67;;
51578;SDS011;47998;53.242;6.386;2023-04-15T09:08:48;4.05;;;2.50;;
51578;SDS011;47998;53.242;6.386;2023-04-15T09:11:14;3.97;;;2.67;;
51578;SDS011;47998;53.242;6.386;2023-04-15T09:13:42;7.22;;;2.53;;
51578;SDS011;47998;53.242;6.386;2023-04-15T09:16:08;6.25;;;3.00;;
51578;SDS011;47998;53.242;6.386;2023-04-15T09:18:35;7.53;;;2.65;;
51578;SDS011;47998;53.242;6.386;2023-04-15T09:21:08;7.45;;;2.20;;
51578;SDS011;47998;53.242;6.386;2023-04-15T09:23:38;6.35;;;1.88;;
51578;SDS011;47998;53.242;6.386;2023-04-15T09:26:06;4.75;;;1.50;;
51578;SDS011;47998;53.242;6.386;2023-04-15T09:28:32;4.18;;;1.30;;
51578;SDS011;47998;53.242;6.386;2023-04-15T09:31:00;6.22;;;1.38;;
51578;SDS011;47998;53.242;6.386;2023-04-15T09:33:27;3.10;;;1.05;;
51578;SDS011;47998;53.242;6.386;2023-04-15T09:38:23;2.05;;;0.68;;
51578;SDS011;47998;53.242;6.386;2023-04-15T09:40:49;4.47;;;1.00;;
51578;SDS011;47998;53.242;6.386;2023-04-15T09:43:15;3.78;;;0.93;;
51578;SDS011;47998;53.242;6.386;2023-04-15T09:45:51;3.80;;;0.93;;
51578;SDS011;47998;53.242;6.386;2023-04-15T09:48:18;2.65;;;0.80;;
51578;SDS011;47998;53.242;6.386;2023-04-15T09:50:51;3.10;;;0.70;;
51578;SDS011;47998;53.242;6.386;2023-04-15T09:53:22;2.95;;;0.80;;
51578;SDS011;47998;53.242;6.386;2023-04-15T09:55:53;3.85;;;1.23;;
51578;SDS011;47998;53.242;6.386;2023-04-15T09:58:23;1.88;;;0.57;;
51578;SDS011;47998;53.242;6.386;2023-04-15T10:00:52;3.42;;;1.00;;
51578;SDS011;47998;53.242;6.386;2023-04-15T10:03:20;2.67;;;0.90;;
51578;SDS011;47998;53.242;6.386;2023-04-15T10:05:48;2.42;;;0.93;;
51578;SDS011;47998;53.242;6.386;2023-04-15T10:08:18;2.95;;;1.10;;
51578;SDS011;47998;53.242;6.386;2023-04-15T10:10:47;1.48;;;0.85;;
51578;SDS011;47998;53.242;6.386;2023-04-15T10:13:16;2.20;;;1.00;;
51578;SDS011;47998;53.242;6.386;2023-04-15T10:15:44;1.75;;;0.82;;
51578;SDS011;47998;53.242;6.386;2023-04-15T10:18:21;3.40;;;1.27;;
51578;SDS011;47998;53.242;6.386;2023-04-15T10:20:49;5.88;;;1.30;;
51578;SDS011;47998;53.242;6.386;2023-04-15T10:23:15;3.65;;;1.10;;
51578;SDS011;47998;53.242;6.386;2023-04-15T10:25:43;2.85;;;0.75;;
51578;SDS011;47998;53.242;6.386;2023-04-15T10:28:10;1.65;;;0.60;;
51578;SDS011;47998;53.242;6.386;2023-04-15T10:30:37;2.20;;;0.80;;
51578;SDS011;47998;53.242;6.386;2023-04-15T10:33:03;4.32;;;1.00;;
51578;SDS011;47998;53.242;6.386;2023-04-15T10:35:30;5.43;;;1.33;;
51578;SDS011;47998;53.242;6.386;2023-04-15T10:37:58;2.38;;;0.95;;
51578;SDS011;47998;53.242;6.386;2023-04-15T10:42:52;6.95;;;1.40;;
51578;SDS011;47998;53.242;6.386;2023-04-15T10:45:24;4.35;;;0.98;;
51578;SDS011;47998;53.242;6.386;2023-04-15T10:47:55;7.65;;;1.30;;
51578;SDS011;47998;53.242;6.386;2023-04-15T10:50:21;2.75;;;1.00;;
51578;SDS011;47998;53.242;6.386;2023-04-15T10:52:50;3.00;;;1.15;;
51578;SDS011;47998;53.242;6.386;2023-04-15T10:55:20;2.47;;;1.27;;
51578;SDS011;47998;53.242;6.386;2023-04-15T10:57:54;5.28;;;1.42;;
51578;SDS011;47998;53.242;6.386;2023-04-15T11:00:25;3.63;;;1.25;;
51578;SDS011;47998;53.242;6.386;2023-04-15T11:02:55;7.00;;;1.50;;
51578;SDS011;47998;53.242;6.386;2023-04-15T11:08:03;4.68;;;1.27;;
51578;SDS011;47998;53.242;6.386;2023-04-15T11:13:02;6.28;;;1.42;;
51578;SDS011;47998;53.242;6.386;2023-04-15T11:15:32;4.75;;;1.30;;
51578;SDS011;47998;53.242;6.386;2023-04-15T11:18:10;6.35;;;1.50;;
51578;SDS011;47998;53.242;6.386;2023-04-15T11:20:37;3.83;;;1.27;;
51578;SDS011;47998;53.242;6.386;2023-04-15T11:23:05;4.00;;;1.17;;
51578;SDS011;47998;53.242;6.386;2023-04-15T11:25:31;6.78;;;1.20;;
51578;SDS011;47998;53.242;6.386;2023-04-15T11:27:59;5.45;;;1.52;;
51578;SDS011;47998;53.242;6.386;2023-04-15T11:30:26;4.70;;;1.42;;
51578;SDS011;47998;53.242;6.386;2023-04-15T11:32:54;7.30;;;1.30;;
51578;SDS011;47998;53.242;6.386;2023-04-15T11:35:22;4.95;;;1.52;;
51578;SDS011;47998;53.242;6.386;2023-04-15T11:37:48;8.35;;;1.83;;
51578;SDS011;47998;53.242;6.386;2023-04-15T11:40:15;5.45;;;1.00;;
51578;SDS011;47998;53.242;6.386;2023-04-15T11:42:43;4.22;;;1.25;;
51578;SDS011;47998;53.242;6.386;2023-04-15T11:45:09;5.13;;;1.10;;
51578;SDS011;47998;53.242;6.386;2023-04-15T11:47:42;6.85;;;1.25;;
51578;SDS011;47998;53.242;6.386;2023-04-15T11:52:42;6.10;;;1.08;;
51578;SDS011;47998;53.242;6.386;2023-04-15T11:55:24;5.90;;;1.13;;
51578;SDS011;47998;53.242;6.386;2023-04-15T11:58:12;4.75;;;1.38;;
51578;SDS011;47998;53.242;6.386;2023-04-15T12:00:36;8.32;;;1.38;;
51578;SDS011;47998;53.242;6.386;2023-04-15T12:03:11;8.32;;;1.73;;
51578;SDS011;47998;53.242;6.386;2023-04-15T12:06:01;4.75;;;0.80;;
51578;SDS011;47998;53.242;6.386;2023-04-15T12:14:10;7.88;;;1.58;;
51578;SDS011;47998;53.242;6.386;2023-04-15T12:16:46;4.93;;;1.33;;
51578;SDS011;47998;53.242;6.386;2023-04-15T12:19:14;11.63;;;2.40;;
51578;SDS011;47998;53.242;6.386;2023-04-15T12:21:43;12.82;;;1.88;;
51578;SDS011;47998;53.242;6.386;2023-04-15T12:24:11;7.40;;;1.02;;
51578;SDS011;47998;53.242;6.386;2023-04-15T12:29:11;6.57;;;1.08;;
51578;SDS011;47998;53.242;6.386;2023-04-15T12:31:51;7.22;;;1.13;;
51578;SDS011;47998;53.242;6.386;2023-04-15T12:34:25;6.43;;;0.80;;
51578;SDS011;47998;53.242;6.386;2023-04-15T12:36:58;4.80;;;0.80;;
51578;SDS011;47998;53.242;6.386;2023-04-15T12:39:25;8.15;;;1.30;;
51578;SDS011;47998;53.242;6.386;2023-04-15T12:41:53;10.05;;;1.73;;
51578;SDS011;47998;53.242;6.386;2023-04-15T12:44:21;16.10;;;2.10;;
51578;SDS011;47998;53.242;6.386;2023-04-15T12:46:48;8.85;;;2.17;;
51578;SDS011;47998;53.242;6.386;2023-04-15T12:49:14;8.50;;;1.63;;
51578;SDS011;47998;53.242;6.386;2023-04-15T12:51:43;8.35;;;1.30;;
51578;SDS011;47998;53.242;6.386;2023-04-15T12:54:09;7.97;;;1.83;;
51578;SDS011;47998;53.242;6.386;2023-04-15T12:56:35;9.25;;;1.70;;
51578;SDS011;47998;53.242;6.386;2023-04-15T12:59:01;6.32;;;1.40;;
51578;SDS011;47998;53.242;6.386;2023-04-15T13:01:27;7.25;;;1.23;;
51578;SDS011;47998;53.242;6.386;2023-04-15T13:03:52;12.35;;;1.30;;
51578;SDS011;47998;53.242;6.386;2023-04-15T13:06:18;5.65;;;1.60;;
51578;SDS011;47998;53.242;6.386;2023-04-15T13:08:44;11.02;;;2.00;;
51578;SDS011;47998;53.242;6.386;2023-04-15T13:11:10;10.65;;;2.35;;
51578;SDS011;47998;53.242;6.386;2023-04-15T13:13:36;11.00;;;1.35;;
51578;SDS011;47998;53.242;6.386;2023-04-15T13:16:01;8.48;;;1.63;;
51578;SDS011;47998;53.242;6.386;2023-04-15T13:18:27;8.50;;;1.63;;
51578;SDS011;47998;53.242;6.386;2023-04-15T13:20:55;8.52;;;3.05;;
51578;SDS011;47998;53.242;6.386;2023-04-15T13:23:21;9.68;;;1.63;;
51578;SDS011;47998;53.242;6.386;2023-04-15T13:25:46;8.40;;;1.60;;
51578;SDS011;47998;53.242;6.386;2023-04-15T13:28:12;12.05;;;2.40;;
51578;SDS011;47998;53.242;6.386;2023-04-15T13:30:38;6.50;;;1.90;;
51578;SDS011;47998;53.242;6.386;2023-04-15T13:33:04;10.23;;;2.22;;
51578;SDS011;47998;53.242;6.386;2023-04-15T13:35:33;9.80;;;1.75;;
51578;SDS011;47998;53.242;6.386;2023-04-15T13:38:00;9.52;;;2.60;;
51578;SDS011;47998;53.242;6.386;2023-04-15T13:40:25;16.05;;;5.63;;
51578;SDS011;47998;53.242;6.386;2023-04-15T13:42:51;18.38;;;6.82;;
51578;SDS011;47998;53.242;6.386;2023-04-15T13:45:17;19.10;;;6.10;;
51578;SDS011;47998;53.242;6.386;2023-04-15T13:47:43;18.92;;;4.00;;
51578;SDS011;47998;53.242;6.386;2023-04-15T13:50:09;14.48;;;4.22;;
51578;SDS011;47998;53.242;6.386;2023-04-15T13:52:35;20.58;;;2.65;;
51578;SDS011;47998;53.242;6.386;2023-04-15T13:55:01;7.05;;;1.30;;
51578;SDS011;47998;53.242;6.386;2023-04-15T13:57:28;9.52;;;1.85;;
51578;SDS011;47998;53.242;6.386;2023-04-15T13:59:54;11.80;;;1.77;;
51578;SDS011;47998;53.242;6.386;2023-04-15T14:02:20;11.63;;;2.25;;
51578;SDS011;47998;53.242;6.386;2023-04-15T14:04:46;10.38;;;1.48;;
51578;SDS011;47998;53.242;6.386;2023-04-15T14:07:12;11.52;;;2.00;;
51578;SDS011;47998;53.242;6.386;2023-04-15T14:09:38;10.63;;;2.08;;
51578;SDS011;47998;53.242;6.386;2023-04-15T14:12:04;12.70;;;2.00;;
51578;SDS011;47998;53.242;6.386;2023-04-15T14:14:30;12.23;;;1.67;;
51578;SDS011;47998;53.242;6.386;2023-04-15T14:16:56;8.90;;;1.80;;
51578;SDS011;47998;53.242;6.386;2023-04-15T14:19:22;9.57;;;2.47;;
51578;SDS011;47998;53.242;6.386;2023-04-15T14:21:48;12.32;;;2.13;;
51578;SDS011;47998;53.242;6.386;2023-04-15T14:24:14;7.50;;;1.67;;
51578;SDS011;47998;53.242;6.386;2023-04-15T14:26:41;14.82;;;1.75;;
51578;SDS011;47998;53.242;6.386;2023-04-15T14:29:08;9.18;;;1.83;;
51578;SDS011;47998;53.242;6.386;2023-04-15T14:31:33;12.45;;;1.95;;
51578;SDS011;47998;53.242;6.386;2023-04-15T14:33:59;13.75;;;1.63;;
51578;SDS011;47998;53.242;6.386;2023-04-15T14:36:25;16.58;;;2.58;;
51578;SDS011;47998;53.242;6.386;2023-04-15T14:38:51;17.70;;;2.83;;
51578;SDS011;47998;53.242;6.386;2023-04-15T14:41:17;9.88;;;1.65;;
51578;SDS011;47998;53.242;6.386;2023-04-15T14:43:42;11.98;;;1.85;;
51578;SDS011;47998;53.242;6.386;2023-04-15T14:46:09;9.85;;;1.85;;
51578;SDS011;47998;53.242;6.386;2023-04-15T14:48:35;12.27;;;2.40;;
51578;SDS011;47998;53.242;6.386;2023-04-15T14:51:01;11.60;;;2.30;;
51578;SDS011;47998;53.242;6.386;2023-04-15T14:53:26;19.70;;;2.58;;